sensor_id;sensor_type;location;lat;lon;timestamp;temperature;humidity
70076;DHT22;63241;51.056;3.698;2022-12-24T00:00:00;10.60;99.90
70076;DHT22;63241;51.056;3.698;2022-12-24T00:02:51;10.70;99.90
70076;DHT22;63241;51.056;3.698;2022-12-24T00:05:19;10.80;99.90
70076;DHT22;63241;51.056;3.698;2022-12-24T00:07:47;10.70;99.90
70076;DHT22;63241;51.056;3.698;2022-12-24T00:10:15;10.80;99.90
70076;DHT22;63241;51.056;3.698;2022-12-24T00:12:54;10.80;99.90
70076;DHT22;63241;51.056;3.698;2022-12-24T00:15:48;10.80;99.90
70076;DHT22;63241;51.056;3.698;2022-12-24T00:18:26;10.90;99.90
70076;DHT22;63241;51.056;3.698;2022-12-24T00:20:54;10.90;99.90
70076;DHT22;63241;51.056;3.698;2022-12-24T00:23:22;10.90;99.90
70076;DHT22;63241;51.056;3.698;2022-12-24T00:25:50;10.90;99.90
70076;DHT22;63241;51.056;3.698;2022-12-24T00:31:57;11.10;99.90
70076;DHT22;63241;51.056;3.698;2022-12-24T00:34:25;11.10;99.90
70076;DHT22;63241;51.056;3.698;2022-12-24T00:36:52;11.10;99.90
70076;DHT22;63241;51.056;3.698;2022-12-24T00:39:20;11.10;99.90
70076;DHT22;63241;51.056;3.698;2022-12-24T00:42:27;11.20;99.90
70076;DHT22;63241;51.056;3.698;2022-12-24T00:45:17;11.20;99.90
70076;DHT22;63241;51.056;3.698;2022-12-24T00:47:45;11.10;99.90
70076;DHT22;63241;51.056;3.698;2022-12-24T00:50:13;11.10;99.90
70076;DHT22;63241;51.056;3.698;2022-12-24T00:52:41;11.20;99.90
70076;DHT22;63241;51.056;3.698;2022-12-24T00:55:38;11.20;99.90
70076;DHT22;63241;51.056;3.698;2022-12-24T00:58:24;11.10;99.90
70076;DHT22;63241;51.056;3.698;2022-12-24T01:00:52;11.10;99.90
70076;DHT22;63241;51.056;3.698;2022-12-24T01:03:20;11.10;99.90
70076;DHT22;63241;51.056;3.698;2022-12-24T01:05:48;11.10;99.90
70076;DHT22;63241;51.056;3.698;2022-12-24T01:08:48;11.20;99.90
70076;DHT22;63241;51.056;3.698;2022-12-24T01:11:34;11.20;99.90
70076;DHT22;63241;51.056;3.698;2022-12-24T01:14:02;11.20;99.90
70076;DHT22;63241;51.056;3.698;2022-12-24T01:16:29;11.20;99.90
70076;DHT22;63241;51.056;3.698;2022-12-24T01:18:57;11.20;99.90
70076;DHT22;63241;51.056;3.698;2022-12-24T01:21:45;11.20;99.90
70076;DHT22;63241;51.056;3.698;2022-12-24T01:24:56;11.20;99.90
70076;DHT22;63241;51.056;3.698;2022-12-24T01:27:24;11.20;99.90
70076;DHT22;63241;51.056;3.698;2022-12-24T01:29:51;11.20;99.90
70076;DHT22;63241;51.056;3.698;2022-12-24T01:32:19;11.20;99.90
70076;DHT22;63241;51.056;3.698;2022-12-24T01:35:25;11.20;99.90
70076;DHT22;63241;51.056;3.698;2022-12-24T01:38:20;11.20;99.90
70076;DHT22;63241;51.056;3.698;2022-12-24T01:41:16;11.20;99.90
70076;DHT22;63241;51.056;3.698;2022-12-24T01:44:24;11.20;99.90
70076;DHT22;63241;51.056;3.698;2022-12-24T01:47:21;11.10;99.90
70076;DHT22;63241;51.056;3.698;2022-12-24T01:50:15;11.10;99.90
70076;DHT22;63241;51.056;3.698;2022-12-24T01:53:10;11.00;99.90
70076;DHT22;63241;51.056;3.698;2022-12-24T01:55:40;11.00;99.90
70076;DHT22;63241;51.056;3.698;2022-12-24T01:58:09;11.00;99.90
70076;DHT22;63241;51.056;3.698;2022-12-24T02:00:38;11.00;99.90
70076;DHT22;63241;51.056;3.698;2022-12-24T02:03:14;11.00;99.90
70076;DHT22;63241;51.056;3.698;2022-12-24T02:06:01;11.00;99.90
70076;DHT22;63241;51.056;3.698;2022-12-24T02:08:29;11.10;99.90
70076;DHT22;63241;51.056;3.698;2022-12-24T08:23:19;10.90;99.90
70076;DHT22;63241;51.056;3.698;2022-12-24T08:25:47;10.90;99.90
70076;DHT22;63241;51.056;3.698;2022-12-24T08:28:17;11.00;99.90
70076;DHT22;63241;51.056;3.698;2022-12-24T08:30:47;11.10;99.90
70076;DHT22;63241;51.056;3.698;2022-12-24T08:33:16;11.10;99.90
70076;DHT22;63241;51.056;3.698;2022-12-24T08:39:25;11.40;99.90
70076;DHT22;63241;51.056;3.698;2022-12-24T08:41:53;11.30;99.90
70076;DHT22;63241;51.056;3.698;2022-12-24T08:44:20;11.30;99.90
70076;DHT22;63241;51.056;3.698;2022-12-24T08:46:48;11.20;99.90
70076;DHT22;63241;51.056;3.698;2022-12-24T08:49:36;11.20;99.90
70076;DHT22;63241;51.056;3.698;2022-12-24T08:52:24;11.20;99.90
70076;DHT22;63241;51.056;3.698;2022-12-24T08:54:52;11.20;99.90
70076;DHT22;63241;51.056;3.698;2022-12-24T08:57:38;11.30;99.90
70076;DHT22;63241;51.056;3.698;2022-12-24T09:00:07;11.30;99.90
70076;DHT22;63241;51.056;3.698;2022-12-24T09:02:56;11.40;99.90
70076;DHT22;63241;51.056;3.698;2022-12-24T09:06:21;11.30;99.90
70076;DHT22;63241;51.056;3.698;2022-12-24T09:08:49;11.50;99.90
70076;DHT22;63241;51.056;3.698;2022-12-24T09:11:17;11.60;99.90
70076;DHT22;63241;51.056;3.698;2022-12-24T09:13:46;11.70;99.90
70076;DHT22;63241;51.056;3.698;2022-12-24T09:20:01;11.70;99.90
70076;DHT22;63241;51.056;3.698;2022-12-24T09:22:28;11.70;99.90
70076;DHT22;63241;51.056;3.698;2022-12-24T09:24:56;11.90;99.90
70076;DHT22;63241;51.056;3.698;2022-12-24T09:27:24;12.00;99.90
70076;DHT22;63241;51.056;3.698;2022-12-24T09:30:04;12.10;99.90
70076;DHT22;63241;51.056;3.698;2022-12-24T09:32:49;12.20;99.90
70076;DHT22;63241;51.056;3.698;2022-12-24T09:35:17;12.30;99.90
70076;DHT22;63241;51.056;3.698;2022-12-24T09:37:45;12.50;99.90
70076;DHT22;63241;51.056;3.698;2022-12-24T09:40:21;12.50;99.90
70076;DHT22;63241;51.056;3.698;2022-12-24T09:46:36;12.70;99.90
70076;DHT22;63241;51.056;3.698;2022-12-24T09:49:14;12.70;99.90
70076;DHT22;63241;51.056;3.698;2022-12-24T09:51:54;12.80;99.90
70076;DHT22;63241;51.056;3.698;2022-12-24T09:54:28;13.00;99.90
70076;DHT22;63241;51.056;3.698;2022-12-24T10:00:48;13.10;99.90
70076;DHT22;63241;51.056;3.698;2022-12-24T10:03:16;13.10;99.90
70076;DHT22;63241;51.056;3.698;2022-12-24T10:06:06;13.00;99.90
70076;DHT22;63241;51.056;3.698;2022-12-24T10:21:09;13.80;99.90
70076;DHT22;63241;51.056;3.698;2022-12-24T10:27:38;14.00;99.90
70076;DHT22;63241;51.056;3.698;2022-12-24T10:30:17;14.10;99.90
70076;DHT22;63241;51.056;3.698;2022-12-24T10:32:41;14.00;99.90
70076;DHT22;63241;51.056;3.698;2022-12-24T10:35:18;14.00;99.90
70076;DHT22;63241;51.056;3.698;2022-12-24T10:41:30;13.90;99.90
70076;DHT22;63241;51.056;3.698;2022-12-24T10:43:59;14.00;99.90
70076;DHT22;63241;51.056;3.698;2022-12-24T10:46:38;13.90;99.90
70076;DHT22;63241;51.056;3.698;2022-12-24T10:50:09;13.80;99.90
70076;DHT22;63241;51.056;3.698;2022-12-24T10:55:49;14.40;99.90
70076;DHT22;63241;51.056;3.698;2022-12-24T10:58:19;14.60;99.90
70076;DHT22;63241;51.056;3.698;2022-12-24T11:00:49;14.60;99.90
70076;DHT22;63241;51.056;3.698;2022-12-24T11:03:34;14.60;99.90
70076;DHT22;63241;51.056;3.698;2022-12-24T11:09:56;14.50;99.90
70076;DHT22;63241;51.056;3.698;2022-12-24T11:12:38;14.50;99.90
70076;DHT22;63241;51.056;3.698;2022-12-24T11:15:21;14.30;99.90
70076;DHT22;63241;51.056;3.698;2022-12-24T11:21:28;13.90;99.90
70076;DHT22;63241;51.056;3.698;2022-12-24T11:23:55;13.80;99.90
70076;DHT22;63241;51.056;3.698;2022-12-24T11:26:26;13.70;99.90
70076;DHT22;63241;51.056;3.698;2022-12-24T11:29:11;13.70;99.90
70076;DHT22;63241;51.056;3.698;2022-12-24T11:35:25;13.70;99.90
70076;DHT22;63241;51.056;3.698;2022-12-24T11:40:39;14.20;99.90
70076;DHT22;63241;51.056;3.698;2022-12-24T11:43:18;14.70;99.90
70076;DHT22;63241;51.056;3.698;2022-12-24T11:49:39;15.30;99.90
70076;DHT22;63241;51.056;3.698;2022-12-24T11:57:41;16.20;99.90
70076;DHT22;63241;51.056;3.698;2022-12-24T12:03:57;16.30;99.90
70076;DHT22;63241;51.056;3.698;2022-12-24T12:06:42;16.40;99.90
70076;DHT22;63241;51.056;3.698;2022-12-24T12:09:13;16.40;99.90
70076;DHT22;63241;51.056;3.698;2022-12-24T12:11:43;16.30;99.90
70076;DHT22;63241;51.056;3.698;2022-12-24T12:18:27;15.60;99.90
70076;DHT22;63241;51.056;3.698;2022-12-24T12:20:55;15.60;99.90
70076;DHT22;63241;51.056;3.698;2022-12-24T12:26:28;15.30;99.90
70076;DHT22;63241;51.056;3.698;2022-12-24T12:29:58;15.30;99.90
70076;DHT22;63241;51.056;3.698;2022-12-24T12:32:33;15.20;99.90
70076;DHT22;63241;51.056;3.698;2022-12-24T12:35:03;15.30;99.90
70076;DHT22;63241;51.056;3.698;2022-12-24T12:37:38;15.10;99.90
70076;DHT22;63241;51.056;3.698;2022-12-24T12:47:06;15.10;99.90
70076;DHT22;63241;51.056;3.698;2022-12-24T12:49:42;14.80;99.90
70076;DHT22;63241;51.056;3.698;2022-12-24T12:52:32;14.80;99.90
70076;DHT22;63241;51.056;3.698;2022-12-24T12:58:58;14.80;99.90
70076;DHT22;63241;51.056;3.698;2022-12-24T13:13:33;14.70;99.90
70076;DHT22;63241;51.056;3.698;2022-12-24T13:19:13;14.60;99.90
70076;DHT22;63241;51.056;3.698;2022-12-24T13:24:54;14.60;99.90
70076;DHT22;63241;51.056;3.698;2022-12-24T13:27:28;14.50;99.90
70076;DHT22;63241;51.056;3.698;2022-12-24T13:30:00;14.60;99.90
70076;DHT22;63241;51.056;3.698;2022-12-24T13:41:50;14.30;99.90
70076;DHT22;63241;51.056;3.698;2022-12-24T13:44:21;14.40;99.90
70076;DHT22;63241;51.056;3.698;2022-12-24T13:47:00;14.10;99.90
70076;DHT22;63241;51.056;3.698;2022-12-24T13:49:56;14.00;99.90
70076;DHT22;63241;51.056;3.698;2022-12-24T13:52:49;14.10;99.90
70076;DHT22;63241;51.056;3.698;2022-12-24T13:55:50;14.00;99.90
70076;DHT22;63241;51.056;3.698;2022-12-24T13:58:19;13.90;99.90
70076;DHT22;63241;51.056;3.698;2022-12-24T14:00:55;13.90;99.90
70076;DHT22;63241;51.056;3.698;2022-12-24T14:07:06;13.90;99.90
70076;DHT22;63241;51.056;3.698;2022-12-24T14:09:35;14.00;99.90
70076;DHT22;63241;51.056;3.698;2022-12-24T14:14:40;13.80;99.90
70076;DHT22;63241;51.056;3.698;2022-12-24T14:21:48;13.70;99.90
70076;DHT22;63241;51.056;3.698;2022-12-24T14:23:55;13.80;99.90
70076;DHT22;63241;51.056;3.698;2022-12-24T14:26:42;13.90;99.90
70076;DHT22;63241;51.056;3.698;2022-12-24T14:32:32;13.80;99.90
70076;DHT22;63241;51.056;3.698;2022-12-24T14:35:18;13.80;99.90
70076;DHT22;63241;51.056;3.698;2022-12-24T14:37:51;13.80;99.90
70076;DHT22;63241;51.056;3.698;2022-12-24T14:40:19;13.80;99.90
70076;DHT22;63241;51.056;3.698;2022-12-24T14:42:51;13.80;99.90
70076;DHT22;63241;51.056;3.698;2022-12-24T14:48:49;13.70;99.90
70076;DHT22;63241;51.056;3.698;2022-12-24T14:51:31;13.80;99.90
70076;DHT22;63241;51.056;3.698;2022-12-24T14:57:14;13.60;99.90
70076;DHT22;63241;51.056;3.698;2022-12-24T15:00:22;13.50;99.90
70076;DHT22;63241;51.056;3.698;2022-12-24T15:02:51;13.10;99.90
70076;DHT22;63241;51.056;3.698;2022-12-24T15:05:27;12.80;99.90
70076;DHT22;63241;51.056;3.698;2022-12-24T15:14:41;12.80;99.90
70076;DHT22;63241;51.056;3.698;2022-12-24T15:17:06;12.60;99.90
70076;DHT22;63241;51.056;3.698;2022-12-24T15:19:37;12.70;99.90
70076;DHT22;63241;51.056;3.698;2022-12-24T15:22:14;12.70;99.90
70076;DHT22;63241;51.056;3.698;2022-12-24T15:28:23;12.70;99.90
70076;DHT22;63241;51.056;3.698;2022-12-24T15:30:37;12.70;99.90
70076;DHT22;63241;51.056;3.698;2022-12-24T15:33:05;12.60;99.90
70076;DHT22;63241;51.056;3.698;2022-12-24T15:38:43;12.40;99.90
70076;DHT22;63241;51.056;3.698;2022-12-24T15:41:44;12.40;99.90
70076;DHT22;63241;51.056;3.698;2022-12-24T15:44:34;12.30;99.90
70076;DHT22;63241;51.056;3.698;2022-12-24T15:47:04;12.20;99.90
70076;DHT22;63241;51.056;3.698;2022-12-24T15:49:33;12.10;99.90
70076;DHT22;63241;51.056;3.698;2022-12-24T15:52:20;12.20;99.90
70076;DHT22;63241;51.056;3.698;2022-12-24T15:57:55;12.30;99.90
70076;DHT22;63241;51.056;3.698;2022-12-24T16:00:25;12.30;99.90
70076;DHT22;63241;51.056;3.698;2022-12-24T16:03:16;12.30;99.90
70076;DHT22;63241;51.056;3.698;2022-12-24T16:09:41;12.30;99.90
70076;DHT22;63241;51.056;3.698;2022-12-24T16:12:17;12.20;99.90
70076;DHT22;63241;51.056;3.698;2022-12-24T16:14:53;12.30;99.90
70076;DHT22;63241;51.056;3.698;2022-12-24T16:17:30;12.40;99.90
70076;DHT22;63241;51.056;3.698;2022-12-24T16:23:49;12.20;99.90
70076;DHT22;63241;51.056;3.698;2022-12-24T16:26:17;12.00;99.90
70076;DHT22;63241;51.056;3.698;2022-12-24T16:28:45;11.80;99.90
70076;DHT22;63241;51.056;3.698;2022-12-24T16:31:18;11.60;99.90
70076;DHT22;63241;51.056;3.698;2022-12-24T16:37:36;11.50;99.90
70076;DHT22;63241;51.056;3.698;2022-12-24T16:40:04;11.30;99.90
70076;DHT22;63241;51.056;3.698;2022-12-24T16:42:32;11.10;99.90
70076;DHT22;63241;51.056;3.698;2022-12-24T16:45:17;11.00;99.90
70076;DHT22;63241;51.056;3.698;2022-12-24T16:50:59;10.90;99.90
70076;DHT22;63241;51.056;3.698;2022-12-24T16:53:29;10.80;99.90
70076;DHT22;63241;51.056;3.698;2022-12-24T16:55:57;10.80;99.90
70076;DHT22;63241;51.056;3.698;2022-12-24T16:58:25;10.80;99.90
70076;DHT22;63241;51.056;3.698;2022-12-24T17:01:15;10.80;99.90
70076;DHT22;63241;51.056;3.698;2022-12-24T17:04:07;10.90;99.90
70076;DHT22;63241;51.056;3.698;2022-12-24T17:06:35;10.90;99.90
70076;DHT22;63241;51.056;3.698;2022-12-24T17:09:03;10.80;99.90
70076;DHT22;63241;51.056;3.698;2022-12-24T17:11:32;10.70;99.90
70076;DHT22;63241;51.056;3.698;2022-12-24T17:17:33;10.70;99.90
70076;DHT22;63241;51.056;3.698;2022-12-24T17:20:01;10.50;99.90
70076;DHT22;63241;51.056;3.698;2022-12-24T17:22:30;10.50;99.90
70076;DHT22;63241;51.056;3.698;2022-12-24T17:24:58;10.40;99.90
70076;DHT22;63241;51.056;3.698;2022-12-24T17:27:48;10.40;99.90
70076;DHT22;63241;51.056;3.698;2022-12-24T17:30:43;10.30;99.90
70076;DHT22;63241;51.056;3.698;2022-12-24T17:33:11;10.30;99.90
70076;DHT22;63241;51.056;3.698;2022-12-24T17:35:42;10.20;99.90
70076;DHT22;63241;51.056;3.698;2022-12-24T17:38:12;10.20;99.90
70076;DHT22;63241;51.056;3.698;2022-12-24T17:44:20;10.30;99.90
70076;DHT22;63241;51.056;3.698;2022-12-24T17:46:48;10.20;99.90
70076;DHT22;63241;51.056;3.698;2022-12-24T17:49:16;10.20;99.90
70076;DHT22;63241;51.056;3.698;2022-12-24T17:51:43;10.30;99.90
70076;DHT22;63241;51.056;3.698;2022-12-24T17:54:22;10.30;99.90
70076;DHT22;63241;51.056;3.698;2022-12-24T17:57:17;10.30;99.90
70076;DHT22;63241;51.056;3.698;2022-12-24T17:59:44;10.30;99.90
70076;DHT22;63241;51.056;3.698;2022-12-24T18:02:12;10.30;99.90
70076;DHT22;63241;51.056;3.698;2022-12-24T18:04:40;10.30;99.90
70076;DHT22;63241;51.056;3.698;2022-12-24T18:07:07;10.20;99.90
70076;DHT22;63241;51.056;3.698;2022-12-24T18:12:58;10.10;99.90
70076;DHT22;63241;51.056;3.698;2022-12-24T18:15:26;10.00;99.90
70076;DHT22;63241;51.056;3.698;2022-12-24T18:17:54;10.00;99.90
70076;DHT22;63241;51.056;3.698;2022-12-24T18:20:23;10.00;99.90
70076;DHT22;63241;51.056;3.698;2022-12-24T18:26:37;10.00;99.90
70076;DHT22;63241;51.056;3.698;2022-12-24T18:29:05;9.90;99.90
70076;DHT22;63241;51.056;3.698;2022-12-24T18:31:34;10.00;99.90
70076;DHT22;63241;51.056;3.698;2022-12-24T18:34:04;10.00;99.90
70076;DHT22;63241;51.056;3.698;2022-12-24T18:36:42;10.00;99.90
70076;DHT22;63241;51.056;3.698;2022-12-24T18:39:24;9.90;99.90
70076;DHT22;63241;51.056;3.698;2022-12-24T18:41:52;10.00;99.90
70076;DHT22;63241;51.056;3.698;2022-12-24T18:44:20;10.00;99.90
70076;DHT22;63241;51.056;3.698;2022-12-24T18:46:48;9.90;99.90
70076;DHT22;63241;51.056;3.698;2022-12-24T18:54:48;10.00;99.90
70076;DHT22;63241;51.056;3.698;2022-12-24T18:57:16;10.00;99.90
70076;DHT22;63241;51.056;3.698;2022-12-24T18:59:44;10.00;99.90
70076;DHT22;63241;51.056;3.698;2022-12-24T19:06:13;10.00;99.90
70076;DHT22;63241;51.056;3.698;2022-12-24T19:08:42;10.10;99.90
70076;DHT22;63241;51.056;3.698;2022-12-24T19:11:09;10.20;99.90
70076;DHT22;63241;51.056;3.698;2022-12-24T19:13:37;10.20;99.90
70076;DHT22;63241;51.056;3.698;2022-12-24T19:16:27;10.20;99.90
70076;DHT22;63241;51.056;3.698;2022-12-24T19:19:23;10.30;99.90
70076;DHT22;63241;51.056;3.698;2022-12-24T19:21:50;10.40;99.90
70076;DHT22;63241;51.056;3.698;2022-12-24T19:24:18;10.40;99.90
70076;DHT22;63241;51.056;3.698;2022-12-24T19:26:46;10.50;99.90
70076;DHT22;63241;51.056;3.698;2022-12-24T19:29:38;10.50;99.90
70076;DHT22;63241;51.056;3.698;2022-12-24T19:32:15;10.50;99.90
70076;DHT22;63241;51.056;3.698;2022-12-24T19:34:50;10.50;99.90
70076;DHT22;63241;51.056;3.698;2022-12-24T19:37:18;10.50;99.90
70076;DHT22;63241;51.056;3.698;2022-12-24T19:39:46;10.50;99.90
70076;DHT22;63241;51.056;3.698;2022-12-24T19:42:13;10.50;99.90
70076;DHT22;63241;51.056;3.698;2022-12-24T19:45:08;10.60;99.90
70076;DHT22;63241;51.056;3.698;2022-12-24T19:47:59;10.50;99.90
70076;DHT22;63241;51.056;3.698;2022-12-24T19:50:27;10.50;99.90
70076;DHT22;63241;51.056;3.698;2022-12-24T19:52:55;10.50;99.90
70076;DHT22;63241;51.056;3.698;2022-12-24T19:55:23;10.60;99.90
70076;DHT22;63241;51.056;3.698;2022-12-24T19:58:10;10.70;99.90
70076;DHT22;63241;51.056;3.698;2022-12-24T20:01:13;10.70;99.90
70076;DHT22;63241;51.056;3.698;2022-12-24T20:03:42;10.70;99.90
70076;DHT22;63241;51.056;3.698;2022-12-24T20:06:10;10.70;99.90
70076;DHT22;63241;51.056;3.698;2022-12-24T20:08:38;10.70;99.90
70076;DHT22;63241;51.056;3.698;2022-12-24T20:11:23;10.70;99.90
70076;DHT22;63241;51.056;3.698;2022-12-24T20:14:14;10.60;99.90
70076;DHT22;63241;51.056;3.698;2022-12-24T20:16:42;10.70;99.90
70076;DHT22;63241;51.056;3.698;2022-12-24T20:19:13;10.80;99.90
70076;DHT22;63241;51.056;3.698;2022-12-24T20:21:41;10.80;99.90
70076;DHT22;63241;51.056;3.698;2022-12-24T20:24:27;10.80;99.90
70076;DHT22;63241;51.056;3.698;2022-12-24T20:27:16;10.80;99.90
70076;DHT22;63241;51.056;3.698;2022-12-24T20:30:02;10.90;99.90
